sensor_id;sensor_type;location;lat;lon;timestamp;temperature;humidity
19435;DHT22;9853;50.848;4.108;2023-05-17T00:01:10;10.60;99.90
19435;DHT22;9853;50.848;4.108;2023-05-17T00:03:11;10.60;99.90
19435;DHT22;9853;50.848;4.108;2023-05-17T00:05:11;10.50;99.90
19435;DHT22;9853;50.848;4.108;2023-05-17T00:07:12;10.50;99.90
19435;DHT22;9853;50.848;4.108;2023-05-17T00:09:13;10.50;99.90
19435;DHT22;9853;50.848;4.108;2023-05-17T00:11:13;10.40;99.90
19435;DHT22;9853;50.848;4.108;2023-05-17T00:13:15;10.50;99.90
19435;DHT22;9853;50.848;4.108;2023-05-17T00:15:15;10.30;99.90
19435;DHT22;9853;50.848;4.108;2023-05-17T00:17:16;10.30;99.90
19435;DHT22;9853;50.848;4.108;2023-05-17T00:19:17;10.30;99.90
19435;DHT22;9853;50.848;4.108;2023-05-17T00:21:18;10.30;99.90
19435;DHT22;9853;50.848;4.108;2023-05-17T00:23:19;10.40;99.90
19435;DHT22;9853;50.848;4.108;2023-05-17T00:25:19;10.40;99.90
19435;DHT22;9853;50.848;4.108;2023-05-17T00:27:20;10.30;99.90
19435;DHT22;9853;50.848;4.108;2023-05-17T00:29:21;10.30;99.90
19435;DHT22;9853;50.848;4.108;2023-05-17T00:31:22;10.30;99.90
19435;DHT22;9853;50.848;4.108;2023-05-17T00:33:22;10.30;99.90
19435;DHT22;9853;50.848;4.108;2023-05-17T00:35:23;10.40;99.90
19435;DHT22;9853;50.848;4.108;2023-05-17T00:37:26;10.30;99.90
19435;DHT22;9853;50.848;4.108;2023-05-17T00:39:26;10.30;99.90
19435;DHT22;9853;50.848;4.108;2023-05-17T00:41:27;10.20;99.90
19435;DHT22;9853;50.848;4.108;2023-05-17T00:43:28;10.20;99.90
19435;DHT22;9853;50.848;4.108;2023-05-17T00:45:29;10.20;99.90
19435;DHT22;9853;50.848;4.108;2023-05-17T00:47:29;10.20;99.90
19435;DHT22;9853;50.848;4.108;2023-05-17T00:49:30;10.20;99.90
19435;DHT22;9853;50.848;4.108;2023-05-17T00:51:31;10.10;99.90
19435;DHT22;9853;50.848;4.108;2023-05-17T00:53:32;10.10;99.90
19435;DHT22;9853;50.848;4.108;2023-05-17T00:55:37;10.10;99.90
19435;DHT22;9853;50.848;4.108;2023-05-17T00:57:38;10.00;99.90
19435;DHT22;9853;50.848;4.108;2023-05-17T00:59:38;10.00;99.90
19435;DHT22;9853;50.848;4.108;2023-05-17T01:01:43;9.90;99.90
19435;DHT22;9853;50.848;4.108;2023-05-17T01:03:46;9.90;99.90
19435;DHT22;9853;50.848;4.108;2023-05-17T01:05:48;9.90;99.90
19435;DHT22;9853;50.848;4.108;2023-05-17T01:07:50;9.90;99.90
19435;DHT22;9853;50.848;4.108;2023-05-17T01:09:51;9.90;99.90
19435;DHT22;9853;50.848;4.108;2023-05-17T01:16:24;9.90;99.90
19435;DHT22;9853;50.848;4.108;2023-05-17T01:18:29;9.90;99.90
19435;DHT22;9853;50.848;4.108;2023-05-17T01:20:45;9.80;99.90
19435;DHT22;9853;50.848;4.108;2023-05-17T01:24:52;9.80;99.90
19435;DHT22;9853;50.848;4.108;2023-05-17T01:27:01;9.80;99.90
19435;DHT22;9853;50.848;4.108;2023-05-17T01:29:05;9.80;99.90
19435;DHT22;9853;50.848;4.108;2023-05-17T01:31:07;9.70;99.90
19435;DHT22;9853;50.848;4.108;2023-05-17T01:33:11;9.70;99.90
19435;DHT22;9853;50.848;4.108;2023-05-17T01:35:15;9.70;99.90
19435;DHT22;9853;50.848;4.108;2023-05-17T01:37:16;9.70;99.90
19435;DHT22;9853;50.848;4.108;2023-05-17T01:39:17;9.70;99.90
19435;DHT22;9853;50.848;4.108;2023-05-17T01:41:35;9.70;99.90
19435;DHT22;9853;50.848;4.108;2023-05-17T01:43:58;9.60;99.90
19435;DHT22;9853;50.848;4.108;2023-05-17T01:46:25;9.60;99.90
19435;DHT22;9853;50.848;4.108;2023-05-17T01:48:35;9.60;99.90
19435;DHT22;9853;50.848;4.108;2023-05-17T01:50:37;9.50;99.90
19435;DHT22;9853;50.848;4.108;2023-05-17T01:52:58;9.50;99.90
19435;DHT22;9853;50.848;4.108;2023-05-17T01:57:28;9.50;99.90
19435;DHT22;9853;50.848;4.108;2023-05-17T01:59:29;9.50;99.90
19435;DHT22;9853;50.848;4.108;2023-05-17T02:01:31;9.50;99.90
19435;DHT22;9853;50.848;4.108;2023-05-17T02:03:33;9.40;99.90
19435;DHT22;9853;50.848;4.108;2023-05-17T02:05:34;9.40;99.90
19435;DHT22;9853;50.848;4.108;2023-05-17T02:07:34;9.30;99.90
19435;DHT22;9853;50.848;4.108;2023-05-17T02:09:35;9.30;99.90
19435;DHT22;9853;50.848;4.108;2023-05-17T02:11:36;9.30;99.90
19435;DHT22;9853;50.848;4.108;2023-05-17T02:13:37;9.20;99.90
19435;DHT22;9853;50.848;4.108;2023-05-17T02:15:37;9.20;99.90
19435;DHT22;9853;50.848;4.108;2023-05-17T02:17:39;9.20;99.90
19435;DHT22;9853;50.848;4.108;2023-05-17T02:19:40;9.10;99.90
19435;DHT22;9853;50.848;4.108;2023-05-17T02:21:41;9.00;99.90
19435;DHT22;9853;50.848;4.108;2023-05-17T02:23:42;9.00;99.90
19435;DHT22;9853;50.848;4.108;2023-05-17T02:25:42;9.00;99.90
19435;DHT22;9853;50.848;4.108;2023-05-17T02:27:43;9.00;99.90
19435;DHT22;9853;50.848;4.108;2023-05-17T02:29:44;8.90;99.90
19435;DHT22;9853;50.848;4.108;2023-05-17T02:31:45;8.90;99.90
19435;DHT22;9853;50.848;4.108;2023-05-17T02:33:46;8.90;99.90
19435;DHT22;9853;50.848;4.108;2023-05-17T02:35:48;8.90;99.90
19435;DHT22;9853;50.848;4.108;2023-05-17T02:37:49;9.10;99.90
19435;DHT22;9853;50.848;4.108;2023-05-17T02:39:50;9.10;99.90
19435;DHT22;9853;50.848;4.108;2023-05-17T02:41:51;9.20;99.90
19435;DHT22;9853;50.848;4.108;2023-05-17T02:43:52;9.20;99.90
19435;DHT22;9853;50.848;4.108;2023-05-17T02:45:52;9.20;99.90
19435;DHT22;9853;50.848;4.108;2023-05-17T02:47:53;9.20;99.90
19435;DHT22;9853;50.848;4.108;2023-05-17T02:49:54;9.20;99.90
19435;DHT22;9853;50.848;4.108;2023-05-17T02:51:55;9.20;99.90
19435;DHT22;9853;50.848;4.108;2023-05-17T02:53:56;9.20;99.90
19435;DHT22;9853;50.848;4.108;2023-05-17T02:55:56;9.20;99.90
19435;DHT22;9853;50.848;4.108;2023-05-17T02:57:57;9.10;99.90
19435;DHT22;9853;50.848;4.108;2023-05-17T02:59:58;9.10;99.90
19435;DHT22;9853;50.848;4.108;2023-05-17T03:02:00;9.10;99.90
19435;DHT22;9853;50.848;4.108;2023-05-17T03:04:01;9.10;99.90
19435;DHT22;9853;50.848;4.108;2023-05-17T03:06:03;9.20;99.90
19435;DHT22;9853;50.848;4.108;2023-05-17T03:08:05;9.20;99.90
19435;DHT22;9853;50.848;4.108;2023-05-17T03:10:06;9.20;99.90
19435;DHT22;9853;50.848;4.108;2023-05-17T03:12:12;9.10;99.90
19435;DHT22;9853;50.848;4.108;2023-05-17T03:14:13;8.90;99.90
19435;DHT22;9853;50.848;4.108;2023-05-17T03:16:14;8.70;99.90
19435;DHT22;9853;50.848;4.108;2023-05-17T03:18:15;8.60;99.90
19435;DHT22;9853;50.848;4.108;2023-05-17T03:20:17;8.60;99.90
19435;DHT22;9853;50.848;4.108;2023-05-17T03:22:19;8.50;99.90
19435;DHT22;9853;50.848;4.108;2023-05-17T03:24:20;8.50;99.90
19435;DHT22;9853;50.848;4.108;2023-05-17T03:26:21;8.50;99.90
19435;DHT22;9853;50.848;4.108;2023-05-17T03:28:25;8.50;99.90
19435;DHT22;9853;50.848;4.108;2023-05-17T03:30:26;8.40;99.90
19435;DHT22;9853;50.848;4.108;2023-05-17T03:32:27;8.40;99.90
19435;DHT22;9853;50.848;4.108;2023-05-17T03:34:28;8.50;99.90
19435;DHT22;9853;50.848;4.108;2023-05-17T03:36:29;8.50;99.90
19435;DHT22;9853;50.848;4.108;2023-05-17T03:38:31;8.50;99.90
19435;DHT22;9853;50.848;4.108;2023-05-17T03:40:32;8.60;99.90
19435;DHT22;9853;50.848;4.108;2023-05-17T03:42:33;8.60;99.90
19435;DHT22;9853;50.848;4.108;2023-05-17T03:44:36;8.60;99.90
19435;DHT22;9853;50.848;4.108;2023-05-17T03:46:37;8.60;99.90
19435;DHT22;9853;50.848;4.108;2023-05-17T03:48:38;8.60;99.90
19435;DHT22;9853;50.848;4.108;2023-05-17T03:50:40;8.60;99.90
19435;DHT22;9853;50.848;4.108;2023-05-17T03:52:41;8.70;99.90
19435;DHT22;9853;50.848;4.108;2023-05-17T03:54:41;8.70;99.90
19435;DHT22;9853;50.848;4.108;2023-05-17T03:56:42;8.70;99.90
19435;DHT22;9853;50.848;4.108;2023-05-17T03:58:46;8.70;99.90
19435;DHT22;9853;50.848;4.108;2023-05-17T04:00:47;8.60;99.90
19435;DHT22;9853;50.848;4.108;2023-05-17T04:02:51;8.70;99.90
19435;DHT22;9853;50.848;4.108;2023-05-17T04:04:52;8.70;99.90
19435;DHT22;9853;50.848;4.108;2023-05-17T04:06:54;8.70;99.90
19435;DHT22;9853;50.848;4.108;2023-05-17T04:08:55;8.80;99.90
19435;DHT22;9853;50.848;4.108;2023-05-17T04:10:56;8.80;99.90
19435;DHT22;9853;50.848;4.108;2023-05-17T04:12:57;8.70;99.90
19435;DHT22;9853;50.848;4.108;2023-05-17T04:14:58;8.80;99.90
19435;DHT22;9853;50.848;4.108;2023-05-17T04:16:59;8.80;99.90
19435;DHT22;9853;50.848;4.108;2023-05-17T04:19:00;8.90;99.90
19435;DHT22;9853;50.848;4.108;2023-05-17T04:21:03;9.00;99.90
19435;DHT22;9853;50.848;4.108;2023-05-17T04:23:05;9.00;99.90
19435;DHT22;9853;50.848;4.108;2023-05-17T04:25:08;9.10;99.90
19435;DHT22;9853;50.848;4.108;2023-05-17T04:27:10;9.10;99.90
19435;DHT22;9853;50.848;4.108;2023-05-17T04:29:11;9.10;99.90
19435;DHT22;9853;50.848;4.108;2023-05-17T04:31:14;9.20;99.90
19435;DHT22;9853;50.848;4.108;2023-05-17T04:33:16;9.30;99.90
19435;DHT22;9853;50.848;4.108;2023-05-17T04:35:17;9.40;99.90
19435;DHT22;9853;50.848;4.108;2023-05-17T04:37:21;9.40;99.90
19435;DHT22;9853;50.848;4.108;2023-05-17T04:39:24;9.50;99.90
19435;DHT22;9853;50.848;4.108;2023-05-17T04:41:25;9.60;99.90
19435;DHT22;9853;50.848;4.108;2023-05-17T04:43:26;9.70;99.90
19435;DHT22;9853;50.848;4.108;2023-05-17T04:45:27;9.60;99.90
19435;DHT22;9853;50.848;4.108;2023-05-17T04:47:28;9.50;99.90
19435;DHT22;9853;50.848;4.108;2023-05-17T04:49:29;9.40;99.90
19435;DHT22;9853;50.848;4.108;2023-05-17T04:51:31;9.30;99.90
19435;DHT22;9853;50.848;4.108;2023-05-17T04:53:32;9.10;99.90
19435;DHT22;9853;50.848;4.108;2023-05-17T04:55:36;9.20;99.90
19435;DHT22;9853;50.848;4.108;2023-05-17T04:57:37;9.40;99.90
19435;DHT22;9853;50.848;4.108;2023-05-17T04:59:39;9.70;99.90
19435;DHT22;9853;50.848;4.108;2023-05-17T05:01:40;9.80;99.90
19435;DHT22;9853;50.848;4.108;2023-05-17T05:03:41;10.00;99.90
19435;DHT22;9853;50.848;4.108;2023-05-17T05:05:43;10.10;99.90
19435;DHT22;9853;50.848;4.108;2023-05-17T05:07:45;10.30;99.90
19435;DHT22;9853;50.848;4.108;2023-05-17T05:09:47;10.40;99.90
19435;DHT22;9853;50.848;4.108;2023-05-17T05:11:49;10.50;99.90
19435;DHT22;9853;50.848;4.108;2023-05-17T05:13:50;10.60;99.90
19435;DHT22;9853;50.848;4.108;2023-05-17T05:15:51;10.70;99.90
19435;DHT22;9853;50.848;4.108;2023-05-17T05:17:52;10.80;99.90
19435;DHT22;9853;50.848;4.108;2023-05-17T05:19:54;10.70;99.90
19435;DHT22;9853;50.848;4.108;2023-05-17T05:21:54;10.60;99.90
19435;DHT22;9853;50.848;4.108;2023-05-17T05:23:55;10.60;99.90
19435;DHT22;9853;50.848;4.108;2023-05-17T05:25:56;10.70;99.90
19435;DHT22;9853;50.848;4.108;2023-05-17T05:27:57;10.80;99.90
19435;DHT22;9853;50.848;4.108;2023-05-17T05:29:57;10.90;99.90
19435;DHT22;9853;50.848;4.108;2023-05-17T05:31:58;11.10;99.90
19435;DHT22;9853;50.848;4.108;2023-05-17T05:33:59;11.10;99.90
19435;DHT22;9853;50.848;4.108;2023-05-17T05:36:02;11.00;99.90
19435;DHT22;9853;50.848;4.108;2023-05-17T05:38:03;11.10;99.90
19435;DHT22;9853;50.848;4.108;2023-05-17T05:40:04;11.10;99.90
19435;DHT22;9853;50.848;4.108;2023-05-17T05:42:05;11.30;99.90
19435;DHT22;9853;50.848;4.108;2023-05-17T05:44:06;11.50;99.90
19435;DHT22;9853;50.848;4.108;2023-05-17T05:46:07;11.60;99.90
19435;DHT22;9853;50.848;4.108;2023-05-17T05:48:08;11.70;99.90
19435;DHT22;9853;50.848;4.108;2023-05-17T05:50:09;11.80;99.90
19435;DHT22;9853;50.848;4.108;2023-05-17T05:52:11;11.90;99.90
19435;DHT22;9853;50.848;4.108;2023-05-17T05:54:12;12.00;99.90
19435;DHT22;9853;50.848;4.108;2023-05-17T05:56:13;11.90;99.90
19435;DHT22;9853;50.848;4.108;2023-05-17T05:58:14;11.80;99.90
19435;DHT22;9853;50.848;4.108;2023-05-17T06:00:15;11.80;99.90
19435;DHT22;9853;50.848;4.108;2023-05-17T06:02:17;11.90;99.90
19435;DHT22;9853;50.848;4.108;2023-05-17T06:04:19;11.80;99.90
19435;DHT22;9853;50.848;4.108;2023-05-17T06:06:19;11.90;99.90
19435;DHT22;9853;50.848;4.108;2023-05-17T06:08:20;12.10;99.90
19435;DHT22;9853;50.848;4.108;2023-05-17T06:10:21;12.30;99.90
19435;DHT22;9853;50.848;4.108;2023-05-17T06:12:22;12.40;99.90
19435;DHT22;9853;50.848;4.108;2023-05-17T06:14:22;12.30;99.90
19435;DHT22;9853;50.848;4.108;2023-05-17T06:16:23;12.10;99.90
19435;DHT22;9853;50.848;4.108;2023-05-17T06:18:24;12.00;99.90
19435;DHT22;9853;50.848;4.108;2023-05-17T06:20:25;12.30;99.90
19435;DHT22;9853;50.848;4.108;2023-05-17T06:22:25;12.50;99.90
19435;DHT22;9853;50.848;4.108;2023-05-17T06:24:26;12.90;99.90
19435;DHT22;9853;50.848;4.108;2023-05-17T06:26:27;13.00;99.90
19435;DHT22;9853;50.848;4.108;2023-05-17T06:28:28;12.80;99.90
19435;DHT22;9853;50.848;4.108;2023-05-17T06:30:29;12.80;99.90
19435;DHT22;9853;50.848;4.108;2023-05-17T06:32:30;13.00;99.90
19435;DHT22;9853;50.848;4.108;2023-05-17T06:34:31;12.50;99.90
19435;DHT22;9853;50.848;4.108;2023-05-17T06:36:33;12.70;99.90
19435;DHT22;9853;50.848;4.108;2023-05-17T06:38:34;12.60;99.90
19435;DHT22;9853;50.848;4.108;2023-05-17T06:40:35;12.80;99.90
19435;DHT22;9853;50.848;4.108;2023-05-17T06:42:35;13.00;99.90
19435;DHT22;9853;50.848;4.108;2023-05-17T06:44:36;13.20;99.90
19435;DHT22;9853;50.848;4.108;2023-05-17T06:46:37;13.30;99.90
19435;DHT22;9853;50.848;4.108;2023-05-17T06:48:38;13.50;99.90
19435;DHT22;9853;50.848;4.108;2023-05-17T06:50:38;13.40;99.90
19435;DHT22;9853;50.848;4.108;2023-05-17T06:52:39;13.60;99.90
19435;DHT22;9853;50.848;4.108;2023-05-17T06:54:40;13.90;99.90
19435;DHT22;9853;50.848;4.108;2023-05-17T06:56:42;13.80;99.90
19435;DHT22;9853;50.848;4.108;2023-05-17T06:58:42;14.20;99.90
19435;DHT22;9853;50.848;4.108;2023-05-17T07:00:43;14.10;99.90
19435;DHT22;9853;50.848;4.108;2023-05-17T07:02:44;14.00;99.90
19435;DHT22;9853;50.848;4.108;2023-05-17T07:04:45;14.10;99.90
19435;DHT22;9853;50.848;4.108;2023-05-17T07:06:45;14.60;99.90
19435;DHT22;9853;50.848;4.108;2023-05-17T07:08:46;14.70;99.90
19435;DHT22;9853;50.848;4.108;2023-05-17T07:10:50;15.50;99.90
19435;DHT22;9853;50.848;4.108;2023-05-17T07:12:51;16.60;99.90
19435;DHT22;9853;50.848;4.108;2023-05-17T07:14:52;17.30;99.90
19435;DHT22;9853;50.848;4.108;2023-05-17T07:16:53;18.20;99.90
19435;DHT22;9853;50.848;4.108;2023-05-17T07:18:54;19.20;99.90
19435;DHT22;9853;50.848;4.108;2023-05-17T07:20:55;20.00;99.90
19435;DHT22;9853;50.848;4.108;2023-05-17T07:22:55;20.70;99.90
19435;DHT22;9853;50.848;4.108;2023-05-17T07:24:56;21.00;99.90
19435;DHT22;9853;50.848;4.108;2023-05-17T07:26:57;20.90;99.90
19435;DHT22;9853;50.848;4.108;2023-05-17T07:28:58;20.70;99.90
19435;DHT22;9853;50.848;4.108;2023-05-17T07:30:59;21.10;99.90
19435;DHT22;9853;50.848;4.108;2023-05-17T07:32:59;21.30;99.90
19435;DHT22;9853;50.848;4.108;2023-05-17T07:35:00;20.80;99.90
19435;DHT22;9853;50.848;4.108;2023-05-17T07:37:02;20.60;99.90
19435;DHT22;9853;50.848;4.108;2023-05-17T07:39:03;20.40;99.90
19435;DHT22;9853;50.848;4.108;2023-05-17T07:41:06;20.40;99.90
19435;DHT22;9853;50.848;4.108;2023-05-17T07:43:09;20.00;99.90
19435;DHT22;9853;50.848;4.108;2023-05-17T07:45:09;19.70;99.90
19435;DHT22;9853;50.848;4.108;2023-05-17T07:47:10;19.20;99.90
19435;DHT22;9853;50.848;4.108;2023-05-17T07:49:12;19.00;99.90
19435;DHT22;9853;50.848;4.108;2023-05-17T07:51:12;19.10;99.90
19435;DHT22;9853;50.848;4.108;2023-05-17T07:53:13;19.40;99.90
19435;DHT22;9853;50.848;4.108;2023-05-17T07:55:14;18.90;99.90
19435;DHT22;9853;50.848;4.108;2023-05-17T07:57:15;19.20;99.90
19435;DHT22;9853;50.848;4.108;2023-05-17T07:59:15;19.50;99.90
19435;DHT22;9853;50.848;4.108;2023-05-17T08:01:16;19.50;99.90
19435;DHT22;9853;50.848;4.108;2023-05-17T08:03:17;19.30;99.90
19435;DHT22;9853;50.848;4.108;2023-05-17T08:05:18;18.90;99.90
19435;DHT22;9853;50.848;4.108;2023-05-17T08:07:18;19.10;99.90
19435;DHT22;9853;50.848;4.108;2023-05-17T08:09:19;19.40;99.90
19435;DHT22;9853;50.848;4.108;2023-05-17T08:11:20;19.70;99.90
19435;DHT22;9853;50.848;4.108;2023-05-17T08:13:21;19.50;99.90
19435;DHT22;9853;50.848;4.108;2023-05-17T08:15:23;19.30;99.90
19435;DHT22;9853;50.848;4.108;2023-05-17T08:17:23;19.20;99.90
19435;DHT22;9853;50.848;4.108;2023-05-17T08:19:24;18.80;99.90
19435;DHT22;9853;50.848;4.108;2023-05-17T08:21:25;18.10;99.90
19435;DHT22;9853;50.848;4.108;2023-05-17T08:23:26;17.30;99.90
19435;DHT22;9853;50.848;4.108;2023-05-17T08:25:27;17.50;99.90
19435;DHT22;9853;50.848;4.108;2023-05-17T08:27:28;17.60;99.90
19435;DHT22;9853;50.848;4.108;2023-05-17T08:29:31;17.70;99.90
19435;DHT22;9853;50.848;4.108;2023-05-17T08:31:32;17.50;99.90
19435;DHT22;9853;50.848;4.108;2023-05-17T08:33:33;17.10;99.90
19435;DHT22;9853;50.848;4.108;2023-05-17T08:35:34;16.50;99.90
19435;DHT22;9853;50.848;4.108;2023-05-17T08:37:34;16.30;99.90
19435;DHT22;9853;50.848;4.108;2023-05-17T08:39:35;16.80;99.90
19435;DHT22;9853;50.848;4.108;2023-05-17T08:41:36;17.70;99.90
19435;DHT22;9853;50.848;4.108;2023-05-17T08:43:37;18.00;99.90
19435;DHT22;9853;50.848;4.108;2023-05-17T08:45:39;18.50;99.90
19435;DHT22;9853;50.848;4.108;2023-05-17T08:47:40;18.70;99.90
19435;DHT22;9853;50.848;4.108;2023-05-17T08:49:42;18.80;99.90
19435;DHT22;9853;50.848;4.108;2023-05-17T08:51:45;18.80;99.90
19435;DHT22;9853;50.848;4.108;2023-05-17T08:53:46;18.90;99.90
19435;DHT22;9853;50.848;4.108;2023-05-17T08:55:49;18.80;99.90
19435;DHT22;9853;50.848;4.108;2023-05-17T08:57:50;19.20;99.90
19435;DHT22;9853;50.848;4.108;2023-05-17T08:59:51;19.80;99.90
19435;DHT22;9853;50.848;4.108;2023-05-17T09:01:53;19.90;99.90
19435;DHT22;9853;50.848;4.108;2023-05-17T09:03:54;19.40;99.90
19435;DHT22;9853;50.848;4.108;2023-05-17T09:05:57;18.90;99.90
19435;DHT22;9853;50.848;4.108;2023-05-17T09:07:59;18.10;99.90
19435;DHT22;9853;50.848;4.108;2023-05-17T09:10:00;17.80;99.90
19435;DHT22;9853;50.848;4.108;2023-05-17T09:12:05;17.80;99.90
19435;DHT22;9853;50.848;4.108;2023-05-17T09:14:06;17.40;99.90
19435;DHT22;9853;50.848;4.108;2023-05-17T09:16:12;18.00;99.90
19435;DHT22;9853;50.848;4.108;2023-05-17T09:18:14;18.30;99.90
19435;DHT22;9853;50.848;4.108;2023-05-17T09:20:22;18.50;99.90
19435;DHT22;9853;50.848;4.108;2023-05-17T09:22:23;17.90;99.90
19435;DHT22;9853;50.848;4.108;2023-05-17T09:24:28;17.70;99.90
19435;DHT22;9853;50.848;4.108;2023-05-17T09:26:42;18.00;99.90
19435;DHT22;9853;50.848;4.108;2023-05-17T09:28:44;18.00;99.90
19435;DHT22;9853;50.848;4.108;2023-05-17T09:30:47;18.90;99.90
19435;DHT22;9853;50.848;4.108;2023-05-17T09:32:48;19.40;99.90
19435;DHT22;9853;50.848;4.108;2023-05-17T09:34:50;20.10;99.90
19435;DHT22;9853;50.848;4.108;2023-05-17T09:36:53;20.00;99.90
19435;DHT22;9853;50.848;4.108;2023-05-17T09:39:00;19.90;99.90
19435;DHT22;9853;50.848;4.108;2023-05-17T09:41:01;19.10;99.90
19435;DHT22;9853;50.848;4.108;2023-05-17T09:43:03;18.30;99.90
19435;DHT22;9853;50.848;4.108;2023-05-17T09:45:04;17.80;99.90
19435;DHT22;9853;50.848;4.108;2023-05-17T09:47:05;17.50;99.90
19435;DHT22;9853;50.848;4.108;2023-05-17T09:49:06;17.70;99.90
19435;DHT22;9853;50.848;4.108;2023-05-17T09:51:08;18.30;99.90
19435;DHT22;9853;50.848;4.108;2023-05-17T09:53:30;18.50;99.90
19435;DHT22;9853;50.848;4.108;2023-05-17T09:55:31;18.40;99.90
19435;DHT22;9853;50.848;4.108;2023-05-17T09:57:39;18.40;99.90
19435;DHT22;9853;50.848;4.108;2023-05-17T09:59:40;18.50;99.90
19435;DHT22;9853;50.848;4.108;2023-05-17T10:01:42;18.30;99.90
19435;DHT22;9853;50.848;4.108;2023-05-17T10:03:44;18.40;99.90
19435;DHT22;9853;50.848;4.108;2023-05-17T10:05:45;18.30;99.90
19435;DHT22;9853;50.848;4.108;2023-05-17T10:07:49;18.10;99.90
19435;DHT22;9853;50.848;4.108;2023-05-17T10:09:50;18.40;99.90
19435;DHT22;9853;50.848;4.108;2023-05-17T10:11:52;18.50;99.90
19435;DHT22;9853;50.848;4.108;2023-05-17T10:16:05;18.90;99.90
19435;DHT22;9853;50.848;4.108;2023-05-17T10:18:08;19.20;99.90
19435;DHT22;9853;50.848;4.108;2023-05-17T10:20:10;19.00;99.90
19435;DHT22;9853;50.848;4.108;2023-05-17T10:22:11;18.60;99.90
19435;DHT22;9853;50.848;4.108;2023-05-17T10:24:12;17.80;99.90
19435;DHT22;9853;50.848;4.108;2023-05-17T10:26:14;17.40;99.90
19435;DHT22;9853;50.848;4.108;2023-05-17T10:28:16;17.10;99.90
19435;DHT22;9853;50.848;4.108;2023-05-17T10:30:18;16.90;99.90
19435;DHT22;9853;50.848;4.108;2023-05-17T10:32:20;16.90;99.90
19435;DHT22;9853;50.848;4.108;2023-05-17T10:34:26;16.80;99.90
19435;DHT22;9853;50.848;4.108;2023-05-17T10:36:29;16.50;99.90
19435;DHT22;9853;50.848;4.108;2023-05-17T10:38:30;16.60;99.90
19435;DHT22;9853;50.848;4.108;2023-05-17T10:40:31;16.60;99.90
19435;DHT22;9853;50.848;4.108;2023-05-17T10:42:33;16.60;99.90
19435;DHT22;9853;50.848;4.108;2023-05-17T10:44:36;16.70;99.90
19435;DHT22;9853;50.848;4.108;2023-05-17T10:46:38;17.10;99.90
19435;DHT22;9853;50.848;4.108;2023-05-17T10:48:39;17.30;99.90
19435;DHT22;9853;50.848;4.108;2023-05-17T10:50:43;17.00;99.90
19435;DHT22;9853;50.848;4.108;2023-05-17T10:52:46;16.70;99.90
19435;DHT22;9853;50.848;4.108;2023-05-17T10:54:48;16.80;99.90
19435;DHT22;9853;50.848;4.108;2023-05-17T10:56:52;16.80;99.90
19435;DHT22;9853;50.848;4.108;2023-05-17T10:59:16;16.90;99.90
19435;DHT22;9853;50.848;4.108;2023-05-17T11:03:54;16.80;99.90
19435;DHT22;9853;50.848;4.108;2023-05-17T11:08:15;17.10;99.90
19435;DHT22;9853;50.848;4.108;2023-05-17T11:10:16;17.10;99.90
19435;DHT22;9853;50.848;4.108;2023-05-17T11:12:34;17.10;99.90
19435;DHT22;9853;50.848;4.108;2023-05-17T11:14:45;17.10;99.90
19435;DHT22;9853;50.848;4.108;2023-05-17T11:16:46;17.10;99.90
19435;DHT22;9853;50.848;4.108;2023-05-17T11:19:06;17.00;99.90
19435;DHT22;9853;50.848;4.108;2023-05-17T11:21:07;16.90;99.90
19435;DHT22;9853;50.848;4.108;2023-05-17T11:23:15;16.70;99.90
19435;DHT22;9853;50.848;4.108;2023-05-17T11:25:18;16.70;99.90
19435;DHT22;9853;50.848;4.108;2023-05-17T11:27:20;16.90;99.90
19435;DHT22;9853;50.848;4.108;2023-05-17T11:29:29;17.20;99.90
19435;DHT22;9853;50.848;4.108;2023-05-17T11:31:34;17.30;99.90
19435;DHT22;9853;50.848;4.108;2023-05-17T11:33:44;17.30;99.90
19435;DHT22;9853;50.848;4.108;2023-05-17T11:35:45;17.40;99.90
19435;DHT22;9853;50.848;4.108;2023-05-17T11:37:46;17.50;99.90
19435;DHT22;9853;50.848;4.108;2023-05-17T11:40:05;17.30;99.90
19435;DHT22;9853;50.848;4.108;2023-05-17T11:42:23;17.10;99.90
19435;DHT22;9853;50.848;4.108;2023-05-17T11:44:33;17.00;99.90
19435;DHT22;9853;50.848;4.108;2023-05-17T11:46:34;17.00;99.90
19435;DHT22;9853;50.848;4.108;2023-05-17T11:48:35;17.20;99.90
19435;DHT22;9853;50.848;4.108;2023-05-17T11:50:37;17.20;99.90
19435;DHT22;9853;50.848;4.108;2023-05-17T11:52:39;17.30;99.90
19435;DHT22;9853;50.848;4.108;2023-05-17T11:54:41;17.30;99.90
19435;DHT22;9853;50.848;4.108;2023-05-17T11:56:42;17.10;99.90
19435;DHT22;9853;50.848;4.108;2023-05-17T11:58:44;17.00;99.90
19435;DHT22;9853;50.848;4.108;2023-05-17T12:00:51;16.90;99.90
19435;DHT22;9853;50.848;4.108;2023-05-17T12:02:52;17.10;99.90
19435;DHT22;9853;50.848;4.108;2023-05-17T12:04:53;17.30;99.90
19435;DHT22;9853;50.848;4.108;2023-05-17T12:06:54;17.30;99.90
19435;DHT22;9853;50.848;4.108;2023-05-17T12:08:55;17.20;99.90
19435;DHT22;9853;50.848;4.108;2023-05-17T12:10:56;17.10;99.90
19435;DHT22;9853;50.848;4.108;2023-05-17T12:12:57;16.90;99.90
19435;DHT22;9853;50.848;4.108;2023-05-17T12:14:58;16.60;99.90
19435;DHT22;9853;50.848;4.108;2023-05-17T12:17:00;16.50;99.90
19435;DHT22;9853;50.848;4.108;2023-05-17T12:19:03;16.60;99.90
19435;DHT22;9853;50.848;4.108;2023-05-17T12:21:05;16.80;99.90
19435;DHT22;9853;50.848;4.108;2023-05-17T12:23:06;17.00;99.90
19435;DHT22;9853;50.848;4.108;2023-05-17T12:25:21;17.10;99.90
19435;DHT22;9853;50.848;4.108;2023-05-17T12:27:25;17.10;99.90
19435;DHT22;9853;50.848;4.108;2023-05-17T12:29:30;17.10;99.90
19435;DHT22;9853;50.848;4.108;2023-05-17T12:31:32;17.00;99.90
19435;DHT22;9853;50.848;4.108;2023-05-17T12:33:38;17.10;99.90
19435;DHT22;9853;50.848;4.108;2023-05-17T12:35:41;17.10;99.90
19435;DHT22;9853;50.848;4.108;2023-05-17T12:37:42;17.00;99.90
19435;DHT22;9853;50.848;4.108;2023-05-17T12:39:43;17.10;99.90
19435;DHT22;9853;50.848;4.108;2023-05-17T12:41:44;17.20;99.90
19435;DHT22;9853;50.848;4.108;2023-05-17T12:44:02;17.00;99.90
19435;DHT22;9853;50.848;4.108;2023-05-17T12:46:07;17.10;99.90
19435;DHT22;9853;50.848;4.108;2023-05-17T12:48:08;17.10;99.90
19435;DHT22;9853;50.848;4.108;2023-05-17T12:50:10;17.00;99.90
19435;DHT22;9853;50.848;4.108;2023-05-17T12:52:11;16.90;99.90
19435;DHT22;9853;50.848;4.108;2023-05-17T12:54:28;16.80;99.90
19435;DHT22;9853;50.848;4.108;2023-05-17T12:56:30;16.60;99.90
19435;DHT22;9853;50.848;4.108;2023-05-17T12:58:32;16.70;99.90
19435;DHT22;9853;50.848;4.108;2023-05-17T13:00:32;17.00;99.90
19435;DHT22;9853;50.848;4.108;2023-05-17T13:02:34;17.00;99.90
19435;DHT22;9853;50.848;4.108;2023-05-17T13:04:34;17.10;99.90
19435;DHT22;9853;50.848;4.108;2023-05-17T13:08:57;17.10;99.90
19435;DHT22;9853;50.848;4.108;2023-05-17T13:11:14;17.20;99.90
19435;DHT22;9853;50.848;4.108;2023-05-17T13:13:19;17.40;99.90
19435;DHT22;9853;50.848;4.108;2023-05-17T13:15:25;17.30;99.90
19435;DHT22;9853;50.848;4.108;2023-05-17T13:17:34;17.70;99.90
19435;DHT22;9853;50.848;4.108;2023-05-17T13:19:36;17.50;99.90
19435;DHT22;9853;50.848;4.108;2023-05-17T13:21:37;17.50;99.90
19435;DHT22;9853;50.848;4.108;2023-05-17T13:23:47;17.50;99.90
19435;DHT22;9853;50.848;4.108;2023-05-17T13:25:48;17.50;99.90
19435;DHT22;9853;50.848;4.108;2023-05-17T13:27:49;17.50;99.90